Time;durP1;ratioP1;P1;durP2;ratioP2;P2;SDS_P1;SDS_P2;PMS_P1;PMS_P2;Temp;Humidity;BMP_temperature;BMP_pressure;BME280_temperature;BME280_humidity;BME280_pressure;Samples;Min_cycle;Max_cycle;Signal;HPM_P1;HPM_P2
2021/07/17 00:00:38;;;;;;;9.80;8.63;;;20.50;99.90;;;;;;4964369;29;20411;-84
2021/07/17 00:03:05;;;;;;;9.70;8.33;;;20.50;99.90;;;;;;4962503;28;20347;-84
2021/07/17 00:05:31;;;;;;;11.60;9.93;;;20.40;99.90;;;;;;4945700;29;20180;-84
2021/07/17 00:07:58;;;;;;;10.10;9.10;;;20.40;99.90;;;;;;4930200;29;20442;-84
2021/07/17 00:10:37;;;;;;;15.57;9.43;;;20.40;99.90;;;;;;4948007;29;20411;-85
2021/07/17 00:13:06;;;;;;;13.27;9.33;;;20.30;99.90;;;;;;4968083;28;20450;-85
2021/07/17 00:15:35;;;;;;;11.80;10.50;;;20.30;99.90;;;;;;5007700;28;20399;-85
2021/07/17 00:18:01;;;;;;;13.40;11.07;;;20.30;99.90;;;;;;5006732;28;20404;-84
2021/07/17 00:20:26;;;;;;;11.00;9.90;;;20.40;99.90;;;;;;4986931;28;20412;-84
2021/07/17 00:22:52;;;;;;;12.40;10.20;;;20.40;99.90;;;;;;5002215;28;20221;-84
2021/07/17 00:25:20;;;;;;;14.53;10.30;;;20.40;99.90;;;;;;5003103;28;20202;-84
2021/07/17 00:27:47;;;;;;;13.10;9.83;;;20.40;99.90;;;;;;5002829;28;20193;-84
2021/07/17 00:30:14;;;;;;;10.17;9.30;;;20.40;99.90;;;;;;5039099;28;20434;-84
2021/07/17 00:32:40;;;;;;;13.00;10.70;;;20.40;99.90;;;;;;5042457;28;20537;-85
2021/07/17 00:35:06;;;;;;;13.50;10.07;;;20.50;99.90;;;;;;5042273;28;20902;-83
2021/07/17 00:37:33;;;;;;;19.63;9.30;;;20.40;99.90;;;;;;5042342;28;20220;-84
2021/07/17 00:39:59;;;;;;;11.97;9.60;;;20.50;99.90;;;;;;5041829;28;20455;-85
2021/07/17 00:42:25;;;;;;;16.03;11.30;;;20.40;99.90;;;;;;5045600;28;20409;-84
2021/07/17 00:44:53;;;;;;;19.37;10.87;;;20.40;99.90;;;;;;5066083;28;20451;-85
2021/07/17 00:47:19;;;;;;;16.13;11.90;;;20.40;99.90;;;;;;5066054;28;20405;-85
2021/07/17 00:49:44;;;;;;;20.40;10.87;;;20.30;99.90;;;;;;5065799;28;20175;-85
2021/07/17 00:52:13;;;;;;;13.97;10.47;;;20.40;99.90;;;;;;5086097;28;20199;-84
2021/07/17 00:54:40;;;;;;;14.70;11.00;;;20.40;99.90;;;;;;5068482;28;20551;-83
2021/07/17 00:57:08;;;;;;;14.80;11.53;;;20.30;99.90;;;;;;5082878;28;20398;-84
2021/07/17 00:59:35;;;;;;;17.00;9.87;;;20.30;99.90;;;;;;5084074;28;20400;-84
2021/07/17 01:02:03;;;;;;;14.57;10.30;;;20.20;99.90;;;;;;5085650;28;20405;-84
2021/07/17 01:04:28;;;;;;;15.40;11.10;;;20.20;99.90;;;;;;5085765;28;20462;-84
2021/07/17 01:06:57;;;;;;;13.93;10.77;;;20.00;99.90;;;;;;5090048;28;20393;-83
2021/07/17 01:09:23;;;;;;;11.23;9.93;;;20.10;99.90;;;;;;5090139;28;20241;-82
2021/07/17 01:11:48;;;;;;;16.83;10.80;;;20.20;99.90;;;;;;5090592;28;20441;-82
2021/07/17 01:14:14;;;;;;;13.17;9.87;;;20.20;99.90;;;;;;5086562;28;20189;-83
2021/07/17 01:16:40;;;;;;;15.17;11.27;;;20.20;99.90;;;;;;5084307;28;20187;-84
2021/07/17 01:19:09;;;;;;;12.47;10.93;;;20.30;99.90;;;;;;5083699;28;20167;-84
2021/07/17 01:21:34;;;;;;;13.47;11.20;;;20.30;99.90;;;;;;5085740;28;20413;-83
2021/07/17 01:24:00;;;;;;;15.10;10.57;;;20.20;99.90;;;;;;5085630;28;20394;-83
2021/07/17 01:26:26;;;;;;;18.17;11.87;;;20.20;99.90;;;;;;5083428;28;20181;-83
2021/07/17 01:28:51;;;;;;;16.23;10.80;;;20.20;99.90;;;;;;5083723;28;20160;-84
2021/07/17 01:31:18;;;;;;;15.43;11.37;;;20.20;99.90;;;;;;5083724;28;20155;-83
2021/07/17 01:33:44;;;;;;;12.77;10.60;;;20.20;99.90;;;;;;5082254;28;20160;-84
2021/07/17 01:36:09;;;;;;;17.30;11.70;;;20.20;99.90;;;;;;5082895;28;20499;-84
2021/07/17 01:38:35;;;;;;;15.30;11.03;;;20.20;99.90;;;;;;5082343;28;20223;-84
2021/07/17 01:41:02;;;;;;;18.30;11.83;;;20.20;99.90;;;;;;5081940;28;20164;-83
2021/07/17 01:43:27;;;;;;;18.43;11.00;;;20.20;99.90;;;;;;5082162;28;20175;-83
2021/07/17 01:45:58;;;;;;;14.03;11.20;;;20.10;99.90;;;;;;5081488;28;20737;-84
2021/07/17 01:48:24;;;;;;;16.53;11.53;;;20.10;99.90;;;;;;5082760;28;20269;-83
2021/07/17 01:50:50;;;;;;;15.23;11.50;;;20.10;99.90;;;;;;5081912;28;20394;-84
2021/07/17 01:53:15;;;;;;;18.57;11.80;;;20.10;99.90;;;;;;5081650;28;20515;-84
2021/07/17 01:55:41;;;;;;;19.47;10.93;;;20.00;99.90;;;;;;5081675;28;20241;-83
2021/07/17 01:58:09;;;;;;;17.07;12.67;;;20.00;99.90;;;;;;5081101;28;20159;-84
2021/07/17 02:00:35;;;;;;;12.30;10.17;;;20.00;99.90;;;;;;5081191;28;20189;-83
2021/07/17 02:03:01;;;;;;;14.20;10.90;;;20.00;99.90;;;;;;5081155;28;20394;-83
2021/07/17 02:05:27;;;;;;;13.97;11.23;;;19.90;99.90;;;;;;5081519;28;20402;-83
2021/07/17 02:07:53;;;;;;;17.87;12.33;;;19.80;99.90;;;;;;5080994;28;20198;-82
2021/07/17 02:10:25;;;;;;;17.20;12.20;;;19.80;99.90;;;;;;5081322;28;20425;-83
2021/07/17 02:13:04;;;;;;;18.57;13.43;;;19.70;99.90;;;;;;5080166;28;20445;-82
2021/07/17 02:15:33;;;;;;;16.57;12.57;;;19.80;99.90;;;;;;5080714;28;20433;-82
2021/07/17 02:17:59;;;;;;;16.30;12.60;;;19.90;99.90;;;;;;5080398;28;20426;-83
2021/07/17 02:20:26;;;;;;;16.37;12.40;;;19.90;99.90;;;;;;5080999;28;20439;-84
2021/07/17 02:22:52;;;;;;;17.77;12.60;;;19.90;99.90;;;;;;5080666;28;20405;-84
2021/07/17 02:25:18;;;;;;;17.90;12.60;;;19.90;99.90;;;;;;5081344;28;20394;-84
2021/07/17 02:27:44;;;;;;;32.67;13.70;;;19.90;99.90;;;;;;5081019;28;20398;-83
2021/07/17 02:30:10;;;;;;;18.73;13.63;;;19.80;99.90;;;;;;5081028;28;20405;-84
2021/07/17 02:32:36;;;;;;;13.27;11.63;;;19.90;99.90;;;;;;5081063;28;20627;-83
2021/07/17 02:35:03;;;;;;;17.47;14.00;;;19.80;99.90;;;;;;5081000;28;20401;-83
2021/07/17 02:37:29;;;;;;;15.67;12.37;;;19.80;99.90;;;;;;5080233;28;20163;-83
2021/07/17 02:39:54;;;;;;;17.17;13.77;;;19.80;99.90;;;;;;5080356;28;20478;-83
2021/07/17 02:42:20;;;;;;;16.87;13.80;;;19.80;99.90;;;;;;5081120;28;20174;-84
2021/07/17 02:44:46;;;;;;;14.83;13.10;;;19.80;99.90;;;;;;5081009;28;20167;-83
2021/07/17 02:47:12;;;;;;;17.33;12.53;;;19.70;99.90;;;;;;5080986;28;20175;-83
2021/07/17 02:49:37;;;;;;;19.93;14.63;;;19.70;99.90;;;;;;5080548;28;20485;-82
2021/07/17 02:52:03;;;;;;;19.90;12.80;;;19.70;99.90;;;;;;5080684;28;20164;-84
2021/07/17 02:54:29;;;;;;;17.70;13.70;;;19.70;99.90;;;;;;5080909;28;20159;-83
2021/07/17 02:56:55;;;;;;;21.40;14.50;;;19.70;99.90;;;;;;5080826;28;20167;-84
2021/07/17 02:59:21;;;;;;;19.97;13.33;;;19.70;99.90;;;;;;5080085;28;20160;-84
2021/07/17 03:01:46;;;;;;;18.50;13.13;;;19.70;99.90;;;;;;5080031;28;20511;-84
2021/07/17 03:04:12;;;;;;;22.13;14.10;;;19.70;99.90;;;;;;5080695;28;20163;-83
2021/07/17 03:06:37;;;;;;;23.23;14.47;;;19.70;99.90;;;;;;5080449;28;20167;-84
2021/07/17 03:09:04;;;;;;;20.97;13.23;;;19.70;99.90;;;;;;5080806;28;20205;-84
2021/07/17 03:11:32;;;;;;;20.50;14.57;;;19.60;99.90;;;;;;5081441;28;20631;-83
2021/07/17 03:13:58;;;;;;;23.43;15.00;;;19.50;99.90;;;;;;5080398;28;20402;-83
2021/07/17 03:16:24;;;;;;;20.20;14.60;;;19.50;99.90;;;;;;5081570;28;20398;-83
2021/07/17 03:18:50;;;;;;;21.70;14.80;;;19.50;99.90;;;;;;5082093;28;20390;-84
2021/07/17 03:21:15;;;;;;;29.03;14.20;;;19.50;99.90;;;;;;5082639;28;20390;-84
2021/07/17 03:23:41;;;;;;;22.87;13.93;;;19.50;99.90;;;;;;5083069;28;20195;-83
2021/07/17 03:26:06;;;;;;;19.50;14.07;;;19.50;99.90;;;;;;5084729;28;20529;-83
2021/07/17 03:28:32;;;;;;;25.87;14.80;;;19.50;99.90;;;;;;5087395;28;20167;-84
2021/07/17 03:30:58;;;;;;;22.33;14.27;;;19.60;99.90;;;;;;5088505;28;20246;-84
2021/07/17 03:33:23;;;;;;;20.63;12.93;;;19.60;99.90;;;;;;5091799;28;20199;-82
2021/07/17 03:35:49;;;;;;;20.67;13.90;;;19.50;99.90;;;;;;5081691;28;20258;-84
2021/07/17 03:38:14;;;;;;;21.00;13.70;;;19.50;99.90;;;;;;5080746;28;20222;-83
2021/07/17 03:40:40;;;;;;;17.73;13.27;;;19.50;99.90;;;;;;5080469;28;20167;-81
2021/07/17 03:43:05;;;;;;;20.90;14.20;;;19.40;99.90;;;;;;5080493;28;20256;-83
2021/07/17 03:45:31;;;;;;;19.57;13.93;;;19.40;99.90;;;;;;5081642;28;20190;-83
2021/07/17 03:47:56;;;;;;;34.77;16.30;;;19.40;99.90;;;;;;5080515;28;20596;-83
2021/07/17 03:50:22;;;;;;;26.97;13.77;;;19.30;99.90;;;;;;5080379;28;20564;-84
2021/07/17 03:52:48;;;;;;;22.93;14.23;;;19.40;99.90;;;;;;5080642;28;20517;-84
2021/07/17 03:55:13;;;;;;;18.03;12.63;;;19.40;99.90;;;;;;5080290;28;20163;-82
2021/07/17 03:57:39;;;;;;;18.47;13.80;;;19.40;99.90;;;;;;5080350;28;20198;-82
2021/07/17 04:00:08;;;;;;;20.37;14.00;;;19.40;99.90;;;;;;5081004;28;20216;-83
2021/07/17 04:02:40;;;;;;;19.57;13.77;;;19.40;99.90;;;;;;5080196;28;20447;-84
2021/07/17 04:05:08;;;;;;;17.87;13.53;;;19.40;99.90;;;;;;5081100;28;20459;-84
2021/07/17 04:07:34;;;;;;;16.53;13.23;;;19.40;99.90;;;;;;5080571;28;20386;-84
2021/07/17 04:10:00;;;;;;;22.90;14.13;;;19.40;99.90;;;;;;5078909;28;20397;-84
2021/07/17 04:12:26;;;;;;;21.90;13.03;;;19.40;99.90;;;;;;5080428;28;20190;-84
2021/07/17 04:14:52;;;;;;;18.80;13.40;;;19.30;99.90;;;;;;5081724;28;20600;-83
2021/07/17 04:17:17;;;;;;;26.90;13.57;;;19.40;99.90;;;;;;5080869;28;20402;-84
2021/07/17 04:19:42;;;;;;;26.97;13.13;;;19.40;99.90;;;;;;5079780;28;20221;-84
2021/07/17 04:22:08;;;;;;;23.30;12.90;;;19.40;99.90;;;;;;5079455;28;20194;-84
2021/07/17 04:24:33;;;;;;;19.80;14.10;;;19.40;99.90;;;;;;5079780;28;20187;-84
2021/07/17 04:26:59;;;;;;;30.60;14.23;;;19.40;99.90;;;;;;5079888;28;20164;-84
2021/07/17 04:29:25;;;;;;;30.53;15.00;;;19.30;99.90;;;;;;5080480;28;20159;-84
2021/07/17 04:31:50;;;;;;;17.97;13.13;;;19.30;99.90;;;;;;5081254;28;20167;-84
2021/07/17 04:34:16;;;;;;;20.57;13.27;;;19.40;99.90;;;;;;5080741;28;20163;-84
2021/07/17 04:36:41;;;;;;;21.13;14.23;;;19.40;99.90;;;;;;5081098;28;20178;-83
2021/07/17 04:39:07;;;;;;;26.23;14.90;;;19.40;99.90;;;;;;5081361;28;20344;-84
2021/07/17 04:41:32;;;;;;;31.93;14.23;;;19.40;99.90;;;;;;5080753;28;20599;-84
2021/07/17 04:43:58;;;;;;;22.30;14.23;;;19.40;99.90;;;;;;5081529;28;20266;-84
2021/07/17 04:46:23;;;;;;;25.83;14.20;;;19.40;99.90;;;;;;5081431;28;20270;-84
2021/07/17 04:48:49;;;;;;;25.27;15.80;;;19.40;99.90;;;;;;5082204;28;20160;-83
2021/07/17 04:51:14;;;;;;;17.07;12.50;;;19.40;99.90;;;;;;5081777;28;20248;-83
2021/07/17 04:53:40;;;;;;;16.40;13.23;;;19.40;99.90;;;;;;5081330;28;20165;-84
2021/07/17 04:56:05;;;;;;;19.20;14.00;;;19.40;99.90;;;;;;5081104;28;20169;-84
2021/07/17 04:58:31;;;;;;;19.43;14.33;;;19.40;99.90;;;;;;5081988;28;20246;-83
2021/07/17 05:00:56;;;;;;;23.53;14.60;;;19.40;99.90;;;;;;5081126;28;20687;-82
2021/07/17 05:03:22;;;;;;;24.47;13.40;;;19.40;99.90;;;;;;5081593;28;20218;-83
2021/07/17 05:05:47;;;;;;;27.40;14.50;;;19.40;99.90;;;;;;5081465;28;20596;-84
2021/07/17 05:08:13;;;;;;;16.53;13.60;;;19.40;99.90;;;;;;5084128;28;20202;-84
2021/07/17 05:10:39;;;;;;;20.07;13.53;;;19.40;99.90;;;;;;5083959;28;20148;-84
2021/07/17 05:13:13;;;;;;;18.33;13.17;;;19.40;99.90;;;;;;5082521;28;20600;-83
2021/07/17 05:15:39;;;;;;;16.60;13.37;;;19.40;99.90;;;;;;5083897;28;20163;-84
2021/07/17 05:18:05;;;;;;;30.07;14.33;;;19.40;99.90;;;;;;5084738;28;20401;-84
2021/07/17 05:20:31;;;;;;;26.70;13.40;;;19.40;99.90;;;;;;5083040;28;20394;-83
2021/07/17 05:22:56;;;;;;;24.53;14.73;;;19.40;99.90;;;;;;5080509;28;20187;-84
2021/07/17 05:25:22;;;;;;;17.47;13.40;;;19.40;99.90;;;;;;5082043;28;20160;-84
2021/07/17 05:27:47;;;;;;;20.57;13.10;;;19.40;99.90;;;;;;5080756;28;20196;-84
2021/07/17 05:30:14;;;;;;;24.17;15.63;;;19.40;99.90;;;;;;5079710;28;20160;-83
2021/07/17 05:32:39;;;;;;;25.10;14.17;;;19.40;99.90;;;;;;5080157;28;20194;-83
2021/07/17 05:35:05;;;;;;;21.17;13.97;;;19.40;99.90;;;;;;5079713;28;20861;-83
2021/07/17 05:37:31;;;;;;;23.07;17.60;;;19.40;99.90;;;;;;5083179;28;20260;-83
2021/07/17 05:39:57;;;;;;;23.97;13.97;;;19.40;99.90;;;;;;5083776;28;20252;-83
2021/07/17 05:42:23;;;;;;;19.57;13.90;;;19.40;99.90;;;;;;5083697;28;20255;-83
2021/07/17 05:44:49;;;;;;;37.47;16.23;;;19.40;99.90;;;;;;5083547;28;20914;-83
2021/07/17 05:47:15;;;;;;;24.83;13.70;;;19.60;99.90;;;;;;5081966;28;20394;-84
2021/07/17 05:49:41;;;;;;;18.47;13.77;;;19.60;99.90;;;;;;5082764;28;20167;-84
2021/07/17 05:52:07;;;;;;;21.43;13.50;;;19.60;99.90;;;;;;5082424;28;20171;-83
2021/07/17 05:54:33;;;;;;;25.20;14.70;;;19.70;99.90;;;;;;5086784;28;20414;-83
2021/07/17 05:56:58;;;;;;;26.67;13.93;;;19.70;99.90;;;;;;5087771;28;20393;-83
2021/07/17 05:59:24;;;;;;;18.13;13.47;;;19.80;99.90;;;;;;5087129;28;20167;-83
2021/07/17 06:01:49;;;;;;;21.43;13.77;;;19.80;99.90;;;;;;5084599;28;20187;-84
2021/07/17 06:04:15;;;;;;;18.80;14.73;;;19.80;99.90;;;;;;5082609;28;20164;-83
2021/07/17 06:06:40;;;;;;;20.83;14.30;;;19.90;99.90;;;;;;5082055;28;20174;-83
2021/07/17 06:09:06;;;;;;;20.50;13.83;;;19.90;99.90;;;;;;5081793;28;20220;-84
2021/07/17 06:11:31;;;;;;;19.97;13.77;;;19.90;99.90;;;;;;5081295;28;20502;-83
2021/07/17 06:13:57;;;;;;;21.37;13.83;;;19.90;99.90;;;;;;5080776;28;20213;-83
2021/07/17 06:16:22;;;;;;;30.00;13.90;;;19.90;99.90;;;;;;5080808;28;20596;-83
2021/07/17 06:18:48;;;;;;;16.90;13.67;;;19.90;99.90;;;;;;5081447;28;20155;-83
2021/07/17 06:21:13;;;;;;;23.53;13.87;;;19.90;99.90;;;;;;5080914;28;20162;-83
2021/07/17 06:23:39;;;;;;;23.20;14.37;;;19.90;99.90;;;;;;5081089;28;20187;-83
2021/07/17 06:26:05;;;;;;;24.97;16.27;;;19.90;99.90;;;;;;5080956;28;20592;-83
2021/07/17 06:28:31;;;;;;;25.60;13.60;;;19.90;99.90;;;;;;5081624;28;20155;-83
2021/07/17 06:30:56;;;;;;;19.37;12.90;;;20.00;99.90;;;;;;5081065;28;20413;-83
2021/07/17 06:33:22;;;;;;;21.77;15.00;;;20.00;99.90;;;;;;5081534;28;20194;-83
2021/07/17 06:35:48;;;;;;;23.50;15.10;;;20.10;99.90;;;;;;5081332;28;20163;-83
2021/07/17 06:38:13;;;;;;;20.50;12.67;;;20.10;99.90;;;;;;5080676;28;20272;-83
2021/07/17 06:40:39;;;;;;;22.20;14.43;;;20.10;99.90;;;;;;5079940;28;20168;-82
2021/07/17 06:43:04;;;;;;;18.00;13.60;;;20.20;99.90;;;;;;5081419;28;20215;-83
2021/07/17 06:45:30;;;;;;;18.77;14.27;;;20.20;99.90;;;;;;5081872;28;20186;-83
2021/07/17 06:47:55;;;;;;;19.20;13.53;;;20.30;99.90;;;;;;5081248;28;20155;-84
2021/07/17 06:50:22;;;;;;;19.43;12.53;;;20.30;99.90;;;;;;5079043;28;20214;-83
2021/07/17 06:52:48;;;;;;;21.40;13.57;;;20.30;99.90;;;;;;5079997;28;20163;-84
2021/07/17 06:55:15;;;;;;;30.83;13.20;;;20.20;99.90;;;;;;5081159;28;20440;-83
2021/07/17 06:57:42;;;;;;;22.33;13.47;;;20.20;99.90;;;;;;5081040;28;20394;-83
2021/07/17 07:00:10;;;;;;;14.63;11.30;;;20.20;99.90;;;;;;5078701;28;20398;-83
2021/07/17 07:02:36;;;;;;;18.80;10.83;;;20.10;99.90;;;;;;5080159;28;20437;-82
2021/07/17 07:05:04;;;;;;;17.57;13.10;;;20.10;99.90;;;;;;5080660;28;20666;-83
2021/07/17 07:07:29;;;;;;;20.83;12.43;;;20.10;99.90;;;;;;5080695;28;20386;-83
2021/07/17 07:09:55;;;;;;;21.40;12.70;;;20.10;99.90;;;;;;5080867;28;20439;-83
2021/07/17 07:12:20;;;;;;;16.57;12.03;;;20.10;99.90;;;;;;5081260;28;20174;-82
2021/07/17 07:14:45;;;;;;;15.20;12.77;;;20.00;99.90;;;;;;5078274;28;20638;-82
2021/07/17 07:17:11;;;;;;;16.43;11.33;;;20.00;99.90;;;;;;5078906;28;20258;-84
2021/07/17 07:19:37;;;;;;;16.37;11.73;;;20.10;99.90;;;;;;5080660;28;20164;-84
2021/07/17 07:22:03;;;;;;;21.73;13.70;;;20.10;99.90;;;;;;5078636;28;20615;-83
2021/07/17 07:24:29;;;;;;;13.73;12.10;;;20.00;99.90;;;;;;5081408;28;20164;-84
2021/07/17 07:26:56;;;;;;;15.60;12.60;;;20.00;99.90;;;;;;5081441;28;20473;-84
2021/07/17 07:29:23;;;;;;;16.00;13.03;;;20.00;99.90;;;;;;5080179;28;20386;-83
2021/07/17 07:31:48;;;;;;;16.13;12.23;;;20.10;99.90;;;;;;5079763;28;20393;-84
2021/07/17 07:34:14;;;;;;;19.80;12.57;;;20.10;99.90;;;;;;5079396;28;20397;-83
2021/07/17 07:36:39;;;;;;;13.80;12.40;;;20.10;99.90;;;;;;5080551;28;20156;-82
2021/07/17 07:39:05;;;;;;;15.07;11.00;;;20.10;99.90;;;;;;5080435;28;20223;-83
2021/07/17 07:41:31;;;;;;;13.07;11.73;;;20.20;99.90;;;;;;5080322;28;20159;-83
2021/07/17 07:43:56;;;;;;;14.90;11.63;;;20.30;99.90;;;;;;5081511;28;20159;-84
2021/07/17 07:46:24;;;;;;;18.13;12.50;;;20.40;99.90;;;;;;5080414;28;20604;-84
2021/07/17 07:48:49;;;;;;;20.67;10.87;;;20.50;99.90;;;;;;5079906;28;20436;-84
2021/07/17 07:51:15;;;;;;;14.90;12.60;;;20.50;99.90;;;;;;5080197;28;20206;-83
2021/07/17 07:53:40;;;;;;;13.53;11.37;;;20.70;99.90;;;;;;5079123;28;20262;-84
2021/07/17 07:56:06;;;;;;;15.60;12.50;;;20.70;99.90;;;;;;5080323;28;20155;-84
2021/07/17 07:58:32;;;;;;;14.27;10.40;;;20.70;99.90;;;;;;5078526;28;20206;-84
2021/07/17 08:00:57;;;;;;;14.90;11.90;;;20.70;99.90;;;;;;5081242;28;20160;-84
2021/07/17 08:03:23;;;;;;;13.80;11.23;;;20.70;99.90;;;;;;5080903;28;20678;-84
2021/07/17 08:05:48;;;;;;;12.37;11.20;;;20.70;99.90;;;;;;5082071;28;20163;-83
2021/07/17 08:08:14;;;;;;;10.70;9.43;;;20.80;99.90;;;;;;5080949;28;20258;-84
2021/07/17 08:10:40;;;;;;;10.47;9.53;;;20.90;99.90;;;;;;5082371;28;20557;-84
2021/07/17 08:13:06;;;;;;;16.77;10.43;;;21.00;99.90;;;;;;5082028;28;20451;-83
2021/07/17 08:15:32;;;;;;;12.60;10.20;;;21.10;99.90;;;;;;5082065;28;20164;-85
2021/07/17 08:17:57;;;;;;;16.43;12.70;;;21.10;99.90;;;;;;5082211;28;20160;-84
2021/07/17 08:20:24;;;;;;;12.50;10.90;;;21.30;99.90;;;;;;5082577;28;20459;-84
2021/07/17 08:22:50;;;;;;;16.23;9.93;;;21.40;99.90;;;;;;5081782;28;20654;-84
2021/07/17 08:25:16;;;;;;;10.50;9.50;;;21.50;99.90;;;;;;5082082;28;20394;-84
2021/07/17 08:27:42;;;;;;;13.83;9.97;;;21.60;99.90;;;;;;5083389;28;20185;-84
2021/07/17 08:30:10;;;;;;;9.90;8.87;;;21.70;99.90;;;;;;5082677;28;20461;-84
2021/07/17 08:32:36;;;;;;;10.93;9.40;;;21.70;99.90;;;;;;5087369;28;20258;-79
2021/07/17 08:35:02;;;;;;;12.00;9.80;;;21.80;99.90;;;;;;5084580;28;20409;-83
2021/07/17 08:37:27;;;;;;;8.67;7.60;;;21.80;99.90;;;;;;5081809;28;20190;-83
2021/07/17 08:39:53;;;;;;;18.30;9.23;;;21.70;99.90;;;;;;5080094;28;20295;-82
2021/07/17 08:42:21;;;;;;;9.27;8.47;;;21.70;99.90;;;;;;5081487;28;20201;-83
2021/07/17 08:44:49;;;;;;;9.90;8.90;;;21.70;99.90;;;;;;5081044;28;20163;-84
2021/07/17 08:47:16;;;;;;;11.13;9.03;;;21.60;99.90;;;;;;5080802;28;20393;-83
2021/07/17 08:49:44;;;;;;;11.50;8.60;;;21.60;99.90;;;;;;5081101;28;20401;-83
2021/07/17 08:52:10;;;;;;;19.03;8.70;;;21.50;99.90;;;;;;5082919;28;20442;-84
2021/07/17 08:54:39;;;;;;;8.57;7.70;;;21.50;99.90;;;;;;5065328;28;20429;-84
2021/07/17 08:57:06;;;;;;;10.70;8.13;;;21.50;99.90;;;;;;5073318;28;20413;-84
2021/07/17 08:59:32;;;;;;;11.60;7.87;;;21.40;99.90;;;;;;5058762;28;20405;-83
2021/07/17 09:01:57;;;;;;;9.30;8.40;;;21.40;99.90;;;;;;5060490;28;20444;-83
2021/07/17 09:04:26;;;;;;;14.43;10.77;;;21.20;99.90;;;;;;5075106;28;20414;-84
2021/07/17 09:06:51;;;;;;;9.60;8.40;;;21.40;99.90;;;;;;5066189;28;20208;-84
2021/07/17 09:09:31;;;;;;;9.50;8.00;;;21.50;99.90;;;;;;5063689;28;20425;-83
2021/07/17 09:11:56;;;;;;;9.50;7.70;;;21.70;99.90;;;;;;5082392;28;20168;-84
2021/07/17 09:14:39;;;;;;;7.70;6.67;;;21.70;99.90;;;;;;5084910;28;20412;-83
2021/07/17 09:17:06;;;;;;;10.50;7.33;;;21.80;99.90;;;;;;5067279;28;20258;-83
2021/07/17 09:19:33;;;;;;;8.27;6.03;;;22.00;99.90;;;;;;5083179;28;20943;-84
2021/07/17 09:22:00;;;;;;;7.60;6.20;;;22.20;99.90;;;;;;5085103;28;20960;-84
2021/07/17 09:24:26;;;;;;;9.13;6.50;;;22.30;99.90;;;;;;5067934;28;20394;-84
2021/07/17 09:26:56;;;;;;;7.67;6.97;;;22.30;99.90;;;;;;5088696;28;20397;-84
2021/07/17 09:29:32;;;;;;;7.07;6.30;;;22.40;99.90;;;;;;5071128;28;20393;-84
2021/07/17 09:31:57;;;;;;;8.30;6.37;;;22.30;99.90;;;;;;5091124;28;20770;-84
2021/07/17 09:34:29;;;;;;;8.03;6.33;;;22.10;99.90;;;;;;5089147;28;20405;-82
2021/07/17 09:37:02;;;;;;;7.50;6.90;;;22.00;99.90;;;;;;5091377;28;20191;-84
2021/07/17 09:39:31;;;;;;;7.43;6.83;;;22.20;99.90;;;;;;5087073;28;20872;-84
2021/07/17 09:42:01;;;;;;;8.00;7.27;;;22.20;99.90;;;;;;5083680;28;20449;-84
2021/07/17 09:44:31;;;;;;;9.13;6.87;;;22.20;99.90;;;;;;5085496;28;20408;-83
2021/07/17 09:46:58;;;;;;;8.70;6.63;;;22.20;99.90;;;;;;5085451;28;20397;-84
2021/07/17 09:49:26;;;;;;;7.73;5.93;;;22.20;99.90;;;;;;5084083;28;20428;-83
2021/07/17 09:52:10;;;;;;;13.13;7.97;;;22.10;99.90;;;;;;5049976;28;20404;-82
2021/07/17 09:54:38;;;;;;;9.13;7.87;;;22.10;99.90;;;;;;5066786;28;20458;-84
2021/07/17 09:57:04;;;;;;;11.77;9.37;;;22.10;99.90;;;;;;5084404;28;20539;-82
2021/07/17 09:59:30;;;;;;;8.70;7.80;;;22.20;99.90;;;;;;5084082;28;20767;-83
2021/07/17 10:01:55;;;;;;;8.60;7.80;;;22.30;99.90;;;;;;5084534;28;20947;-84
2021/07/17 10:04:21;;;;;;;9.03;8.20;;;22.30;99.90;;;;;;5083431;28;20155;-84
2021/07/17 10:06:50;;;;;;;7.87;7.13;;;22.30;99.90;;;;;;5084829;28;20197;-83
2021/07/17 10:09:28;;;;;;;10.07;7.30;;;22.30;99.90;;;;;;5083566;28;20202;-83
2021/07/17 10:11:59;;;;;;;17.40;8.43;;;22.30;99.90;;;;;;5084877;28;20398;-84
2021/07/17 10:14:28;;;;;;;13.00;7.93;;;22.30;99.90;;;;;;5082927;28;20401;-84
2021/07/17 10:16:58;;;;;;;10.93;7.50;;;22.20;99.90;;;;;;5082165;28;20389;-84
2021/07/17 10:19:26;;;;;;;15.70;7.90;;;22.30;99.90;;;;;;5084476;28;20432;-83
2021/07/17 10:21:54;;;;;;;11.30;8.13;;;22.30;99.90;;;;;;5086762;28;20413;-84
2021/07/17 10:24:22;;;;;;;10.93;8.40;;;22.10;99.90;;;;;;5087602;28;20400;-84
2021/07/17 10:26:49;;;;;;;9.03;8.20;;;22.20;99.90;;;;;;5082789;28;20398;-84
2021/07/17 10:29:17;;;;;;;9.77;6.70;;;22.30;99.90;;;;;;5083187;28;20480;-84
2021/07/17 10:31:47;;;;;;;13.20;8.10;;;22.30;99.90;;;;;;5082932;28;20378;-84
2021/07/17 10:34:14;;;;;;;9.40;7.43;;;22.50;99.90;;;;;;5080712;28;20418;-82
2021/07/17 10:36:49;;;;;;;10.53;7.23;;;22.70;99.90;;;;;;5082925;28;20392;-84
2021/07/17 10:39:20;;;;;;;10.30;8.50;;;22.80;99.90;;;;;;5081032;28;20461;-84
2021/07/17 10:41:47;;;;;;;10.23;8.67;;;23.00;99.90;;;;;;5081833;28;20425;-83
2021/07/17 10:44:12;;;;;;;9.80;7.13;;;23.00;99.90;;;;;;5081757;28;20393;-84
2021/07/17 10:46:41;;;;;;;13.13;7.23;;;23.10;99.90;;;;;;5082747;28;20478;-84
2021/07/17 10:49:13;;;;;;;11.97;8.10;;;23.10;99.90;;;;;;5082374;28;20172;-82
2021/07/17 10:51:41;;;;;;;11.50;8.20;;;23.20;99.90;;;;;;5082890;28;20385;-84
2021/07/17 10:54:12;;;;;;;12.27;8.43;;;23.40;99.90;;;;;;5083903;28;20477;-84
2021/07/17 10:56:42;;;;;;;20.83;9.90;;;23.70;99.90;;;;;;5082748;28;20405;-83
2021/07/17 10:59:41;;;;;;;9.23;7.50;;;24.10;99.90;;;;;;5083836;28;20394;-84
2021/07/17 11:02:09;;;;;;;9.20;7.60;;;24.50;99.90;;;;;;5069360;28;20516;-84
2021/07/17 11:04:48;;;;;;;11.30;8.60;;;24.70;99.90;;;;;;5081889;28;20406;-83
2021/07/17 11:07:32;;;;;;;9.93;8.47;;;25.10;99.90;;;;;;5082582;28;20874;-83
2021/07/17 11:10:04;;;;;;;13.83;8.23;;;25.10;99.90;;;;;;5081680;28;20719;-82
2021/07/17 11:12:32;;;;;;;8.80;8.00;;;24.90;99.90;;;;;;5082500;28;20394;-83
2021/07/17 11:15:34;;;;;;;11.63;9.10;;;24.80;99.90;;;;;;5082986;28;20421;-84
2021/07/17 11:18:17;;;;;;;8.73;7.90;;;23.90;99.90;;;;;;5083205;28;20427;-83
2021/07/17 11:20:43;;;;;;;7.93;6.83;;;24.20;99.90;;;;;;5084178;28;20398;-84
2021/07/17 11:23:13;;;;;;;12.70;9.07;;;24.20;99.90;;;;;;5083718;28;20880;-83
2021/07/17 11:25:56;;;;;;;11.10;8.30;;;24.10;99.90;;;;;;5082035;28;20234;-84
2021/07/17 11:31:39;;;;;;;9.30;8.10;;;24.00;99.90;;;;;;5080222;28;20503;-84
2021/07/17 11:34:27;;;;;;;14.27;8.13;;;24.10;99.90;;;;;;5081454;28;20389;-84
2021/07/17 11:36:55;;;;;;;13.90;8.40;;;24.50;99.90;;;;;;5081612;28;20444;-83
2021/07/17 11:39:25;;;;;;;12.37;8.23;;;24.60;99.90;;;;;;5081743;28;20458;-84
2021/07/17 11:41:52;;;;;;;10.83;8.47;;;24.60;99.90;;;;;;5079570;28;20397;-83
2021/07/17 11:44:18;;;;;;;10.77;8.50;;;24.80;99.90;;;;;;5081283;28;20407;-83
2021/07/17 11:47:00;;;;;;;11.00;8.17;;;25.00;99.90;;;;;;5080547;28;20454;-84
2021/07/17 11:49:32;;;;;;;12.10;8.70;;;25.00;99.90;;;;;;5082005;28;20163;-83
2021/07/17 11:52:00;;;;;;;9.57;8.60;;;24.60;99.90;;;;;;5080504;28;20413;-83
2021/07/17 11:54:32;;;;;;;16.27;9.20;;;24.70;99.90;;;;;;5083769;28;20455;-83
2021/07/17 11:57:08;;;;;;;12.63;8.00;;;23.50;99.90;;;;;;5081418;28;20493;-83
2021/07/17 11:59:36;;;;;;;10.30;9.40;;;24.00;99.90;;;;;;5081719;28;20408;-84
2021/07/17 12:02:14;;;;;;;14.33;8.97;;;24.30;99.90;;;;;;5080241;28;20741;-83
2021/07/17 12:04:46;;;;;;;10.93;9.07;;;24.40;99.90;;;;;;5079532;28;20422;-84
2021/07/17 12:07:14;;;;;;;12.00;9.50;;;24.40;99.90;;;;;;5081855;28;20543;-84
2021/07/17 12:09:43;;;;;;;17.53;10.23;;;24.50;99.90;;;;;;5079337;28;20429;-84
2021/07/17 12:12:12;;;;;;;10.30;9.23;;;24.50;99.90;;;;;;5079752;28;20909;-84
2021/07/17 12:14:38;;;;;;;10.83;9.67;;;24.60;99.90;;;;;;5080909;28;20397;-84
2021/07/17 12:17:03;;;;;;;15.97;10.10;;;24.70;99.90;;;;;;5080211;28;20390;-84
2021/07/17 12:19:29;;;;;;;8.93;8.10;;;24.60;99.90;;;;;;5080489;28;20544;-84
2021/07/17 12:21:56;;;;;;;14.13;9.90;;;24.60;99.90;;;;;;5079244;28;20565;-84
2021/07/17 12:24:21;;;;;;;13.03;10.60;;;24.60;99.90;;;;;;5080747;28;20584;-84
2021/07/17 12:26:47;;;;;;;11.47;10.30;;;24.50;99.90;;;;;;5080997;28;20390;-84
2021/07/17 12:29:13;;;;;;;11.03;9.37;;;24.20;99.90;;;;;;5064066;28;20191;-83
2021/07/17 12:31:39;;;;;;;11.97;8.97;;;24.20;99.90;;;;;;5081576;28;20233;-84
2021/07/17 12:34:09;;;;;;;10.30;9.13;;;24.10;99.90;;;;;;5080265;28;20394;-84